sensor_id;sensor_type;location;lat;lon;timestamp;P1;durP1;ratioP1;P2;durP2;ratioP2
75926;SDS011;64605;48.296;16.416;2022-12-07T00:00:53;21.45;;;15.07;;
75926;SDS011;64605;48.296;16.416;2022-12-07T00:03:19;19.95;;;15.55;;
75926;SDS011;64605;48.296;16.416;2022-12-07T00:05:44;19.83;;;15.40;;
75926;SDS011;64605;48.296;16.416;2022-12-07T00:08:10;19.88;;;16.00;;
75926;SDS011;64605;48.296;16.416;2022-12-07T00:10:36;20.45;;;15.45;;
75926;SDS011;64605;48.296;16.416;2022-12-07T00:13:01;22.13;;;15.63;;
75926;SDS011;64605;48.296;16.416;2022-12-07T00:15:27;18.13;;;14.43;;
75926;SDS011;64605;48.296;16.416;2022-12-07T00:17:53;19.17;;;15.10;;
75926;SDS011;64605;48.296;16.416;2022-12-07T00:20:18;21.15;;;15.10;;
75926;SDS011;64605;48.296;16.416;2022-12-07T00:22:44;21.50;;;15.57;;
75926;SDS011;64605;48.296;16.416;2022-12-07T00:25:09;19.13;;;15.48;;
75926;SDS011;64605;48.296;16.416;2022-12-07T00:27:35;22.23;;;15.20;;
75926;SDS011;64605;48.296;16.416;2022-12-07T00:30:01;18.02;;;14.35;;
75926;SDS011;64605;48.296;16.416;2022-12-07T00:32:26;18.33;;;14.52;;
75926;SDS011;64605;48.296;16.416;2022-12-07T00:34:52;21.20;;;16.42;;
75926;SDS011;64605;48.296;16.416;2022-12-07T00:37:17;20.42;;;15.43;;
75926;SDS011;64605;48.296;16.416;2022-12-07T00:39:43;20.90;;;15.15;;
75926;SDS011;64605;48.296;16.416;2022-12-07T00:42:10;20.35;;;15.32;;
75926;SDS011;64605;48.296;16.416;2022-12-07T00:44:36;19.45;;;15.18;;
75926;SDS011;64605;48.296;16.416;2022-12-07T00:47:02;19.85;;;15.40;;
75926;SDS011;64605;48.296;16.416;2022-12-07T00:49:27;20.92;;;16.00;;
75926;SDS011;64605;48.296;16.416;2022-12-07T00:51:53;20.65;;;15.90;;
75926;SDS011;64605;48.296;16.416;2022-12-07T00:54:19;22.67;;;17.67;;
75926;SDS011;64605;48.296;16.416;2022-12-07T00:56:44;24.10;;;17.42;;
75926;SDS011;64605;48.296;16.416;2022-12-07T00:59:11;22.75;;;16.30;;
75926;SDS011;64605;48.296;16.416;2022-12-07T01:01:40;21.35;;;16.02;;
75926;SDS011;64605;48.296;16.416;2022-12-07T01:04:06;23.27;;;17.23;;
75926;SDS011;64605;48.296;16.416;2022-12-07T01:06:32;24.67;;;17.67;;
75926;SDS011;64605;48.296;16.416;2022-12-07T01:08:57;24.80;;;18.05;;
75926;SDS011;64605;48.296;16.416;2022-12-07T01:11:25;22.73;;;18.00;;
75926;SDS011;64605;48.296;16.416;2022-12-07T01:13:53;22.70;;;17.65;;
75926;SDS011;64605;48.296;16.416;2022-12-07T01:16:20;25.25;;;19.13;;
75926;SDS011;64605;48.296;16.416;2022-12-07T01:18:47;23.33;;;17.90;;
75926;SDS011;64605;48.296;16.416;2022-12-07T01:21:16;26.88;;;19.42;;
75926;SDS011;64605;48.296;16.416;2022-12-07T01:23:43;26.83;;;19.83;;
75926;SDS011;64605;48.296;16.416;2022-12-07T01:26:10;26.77;;;18.90;;
75926;SDS011;64605;48.296;16.416;2022-12-07T01:28:37;25.70;;;19.23;;
75926;SDS011;64605;48.296;16.416;2022-12-07T01:31:04;25.67;;;19.60;;
75926;SDS011;64605;48.296;16.416;2022-12-07T01:33:33;29.48;;;19.17;;
75926;SDS011;64605;48.296;16.416;2022-12-07T01:36:22;24.50;;;18.45;;
75926;SDS011;64605;48.296;16.416;2022-12-07T01:38:48;28.13;;;20.02;;
75926;SDS011;64605;48.296;16.416;2022-12-07T01:41:19;27.02;;;20.00;;
75926;SDS011;64605;48.296;16.416;2022-12-07T01:46:56;23.65;;;18.17;;
75926;SDS011;64605;48.296;16.416;2022-12-07T01:52:22;27.77;;;19.33;;
75926;SDS011;64605;48.296;16.416;2022-12-07T01:54:57;26.08;;;19.20;;
75926;SDS011;64605;48.296;16.416;2022-12-07T01:57:26;25.17;;;19.73;;
75926;SDS011;64605;48.296;16.416;2022-12-07T01:59:52;25.15;;;19.88;;
75926;SDS011;64605;48.296;16.416;2022-12-07T02:02:25;30.27;;;21.45;;
75926;SDS011;64605;48.296;16.416;2022-12-07T02:04:56;24.35;;;19.15;;
75926;SDS011;64605;48.296;16.416;2022-12-07T02:07:23;25.55;;;18.27;;
75926;SDS011;64605;48.296;16.416;2022-12-07T02:09:51;24.85;;;17.77;;
75926;SDS011;64605;48.296;16.416;2022-12-07T02:12:17;24.63;;;18.80;;
75926;SDS011;64605;48.296;16.416;2022-12-07T02:14:43;26.15;;;20.42;;
75926;SDS011;64605;48.296;16.416;2022-12-07T02:17:25;23.90;;;17.83;;
75926;SDS011;64605;48.296;16.416;2022-12-07T02:25:22;31.73;;;20.90;;
75926;SDS011;64605;48.296;16.416;2022-12-07T02:28:07;27.85;;;19.55;;
75926;SDS011;64605;48.296;16.416;2022-12-07T02:30:45;27.30;;;20.75;;
75926;SDS011;64605;48.296;16.416;2022-12-07T02:33:14;27.63;;;20.45;;
75926;SDS011;64605;48.296;16.416;2022-12-07T02:38:20;26.23;;;19.55;;
75926;SDS011;64605;48.296;16.416;2022-12-07T02:41:04;24.73;;;19.45;;
75926;SDS011;64605;48.296;16.416;2022-12-07T02:43:35;23.95;;;18.77;;
75926;SDS011;64605;48.296;16.416;2022-12-07T02:46:17;27.38;;;19.90;;
75926;SDS011;64605;48.296;16.416;2022-12-07T02:48:52;25.92;;;20.48;;
75926;SDS011;64605;48.296;16.416;2022-12-07T02:51:19;27.20;;;20.02;;
75926;SDS011;64605;48.296;16.416;2022-12-07T02:53:46;27.45;;;19.70;;
75926;SDS011;64605;48.296;16.416;2022-12-07T03:04:21;25.10;;;18.63;;
75926;SDS011;64605;48.296;16.416;2022-12-07T03:07:08;24.25;;;17.70;;
75926;SDS011;64605;48.296;16.416;2022-12-07T03:09:45;25.23;;;18.02;;
75926;SDS011;64605;48.296;16.416;2022-12-07T03:12:30;24.33;;;18.27;;
75926;SDS011;64605;48.296;16.416;2022-12-07T03:15:10;23.85;;;19.00;;
75926;SDS011;64605;48.296;16.416;2022-12-07T03:17:40;23.38;;;17.67;;
75926;SDS011;64605;48.296;16.416;2022-12-07T03:20:09;21.50;;;16.67;;
75926;SDS011;64605;48.296;16.416;2022-12-07T03:22:38;30.85;;;19.13;;
75926;SDS011;64605;48.296;16.416;2022-12-07T03:25:08;24.02;;;19.38;;
75926;SDS011;64605;48.296;16.416;2022-12-07T03:27:39;24.52;;;18.08;;
75926;SDS011;64605;48.296;16.416;2022-12-07T03:30:32;24.08;;;17.27;;
75926;SDS011;64605;48.296;16.416;2022-12-07T03:33:13;26.10;;;17.92;;
75926;SDS011;64605;48.296;16.416;2022-12-07T03:35:48;23.63;;;17.25;;
75926;SDS011;64605;48.296;16.416;2022-12-07T03:38:25;22.05;;;16.48;;
75926;SDS011;64605;48.296;16.416;2022-12-07T03:43:28;21.70;;;16.13;;
75926;SDS011;64605;48.296;16.416;2022-12-07T03:54:41;26.73;;;16.55;;
75926;SDS011;64605;48.296;16.416;2022-12-07T03:57:33;23.05;;;17.05;;
75926;SDS011;64605;48.296;16.416;2022-12-07T04:00:00;24.17;;;16.02;;
75926;SDS011;64605;48.296;16.416;2022-12-07T04:02:29;21.13;;;14.88;;
75926;SDS011;64605;48.296;16.416;2022-12-07T04:04:55;23.52;;;16.63;;
75926;SDS011;64605;48.296;16.416;2022-12-07T04:07:21;22.90;;;16.38;;
75926;SDS011;64605;48.296;16.416;2022-12-07T04:09:47;22.80;;;17.00;;
75926;SDS011;64605;48.296;16.416;2022-12-07T04:12:13;25.00;;;17.40;;
75926;SDS011;64605;48.296;16.416;2022-12-07T04:14:38;20.77;;;16.35;;
75926;SDS011;64605;48.296;16.416;2022-12-07T04:17:04;23.63;;;16.70;;
75926;SDS011;64605;48.296;16.416;2022-12-07T04:19:31;24.30;;;16.55;;
75926;SDS011;64605;48.296;16.416;2022-12-07T04:21:58;24.83;;;17.98;;
75926;SDS011;64605;48.296;16.416;2022-12-07T04:24:28;24.30;;;17.50;;
75926;SDS011;64605;48.296;16.416;2022-12-07T04:26:54;24.63;;;17.20;;
75926;SDS011;64605;48.296;16.416;2022-12-07T04:29:20;24.27;;;17.17;;
75926;SDS011;64605;48.296;16.416;2022-12-07T04:31:46;22.88;;;17.13;;
75926;SDS011;64605;48.296;16.416;2022-12-07T04:34:13;24.73;;;17.48;;
75926;SDS011;64605;48.296;16.416;2022-12-07T04:36:40;21.30;;;15.52;;
75926;SDS011;64605;48.296;16.416;2022-12-07T04:39:06;21.88;;;15.90;;
75926;SDS011;64605;48.296;16.416;2022-12-07T04:41:33;22.83;;;16.20;;
75926;SDS011;64605;48.296;16.416;2022-12-07T04:44:00;21.67;;;16.02;;
75926;SDS011;64605;48.296;16.416;2022-12-07T04:46:29;22.80;;;16.25;;
75926;SDS011;64605;48.296;16.416;2022-12-07T04:48:56;24.15;;;16.15;;
75926;SDS011;64605;48.296;16.416;2022-12-07T04:51:24;24.95;;;16.88;;
75926;SDS011;64605;48.296;16.416;2022-12-07T04:53:51;23.13;;;17.52;;
75926;SDS011;64605;48.296;16.416;2022-12-07T04:56:17;20.92;;;15.52;;
75926;SDS011;64605;48.296;16.416;2022-12-07T04:58:44;22.73;;;16.63;;
75926;SDS011;64605;48.296;16.416;2022-12-07T05:01:12;20.85;;;16.08;;
75926;SDS011;64605;48.296;16.416;2022-12-07T05:03:38;23.38;;;16.73;;
75926;SDS011;64605;48.296;16.416;2022-12-07T05:06:04;24.13;;;16.60;;
75926;SDS011;64605;48.296;16.416;2022-12-07T05:08:32;20.95;;;16.50;;
75926;SDS011;64605;48.296;16.416;2022-12-07T05:10:58;25.73;;;16.92;;
75926;SDS011;64605;48.296;16.416;2022-12-07T05:13:24;24.58;;;16.77;;
75926;SDS011;64605;48.296;16.416;2022-12-07T05:15:50;23.13;;;16.15;;
75926;SDS011;64605;48.296;16.416;2022-12-07T05:18:16;22.10;;;15.65;;
75926;SDS011;64605;48.296;16.416;2022-12-07T05:20:42;20.48;;;15.85;;
75926;SDS011;64605;48.296;16.416;2022-12-07T05:23:08;18.98;;;14.50;;
75926;SDS011;64605;48.296;16.416;2022-12-07T05:25:34;22.10;;;15.60;;
75926;SDS011;64605;48.296;16.416;2022-12-07T05:28:00;18.73;;;14.25;;
75926;SDS011;64605;48.296;16.416;2022-12-07T05:30:27;21.83;;;14.95;;
75926;SDS011;64605;48.296;16.416;2022-12-07T05:32:53;19.88;;;14.23;;
75926;SDS011;64605;48.296;16.416;2022-12-07T05:35:18;19.38;;;15.00;;
75926;SDS011;64605;48.296;16.416;2022-12-07T05:37:44;21.52;;;15.25;;
75926;SDS011;64605;48.296;16.416;2022-12-07T05:40:11;18.33;;;14.73;;
75926;SDS011;64605;48.296;16.416;2022-12-07T05:42:37;20.98;;;14.43;;
75926;SDS011;64605;48.296;16.416;2022-12-07T05:45:03;20.75;;;14.70;;
75926;SDS011;64605;48.296;16.416;2022-12-07T05:47:30;21.83;;;15.38;;
75926;SDS011;64605;48.296;16.416;2022-12-07T05:49:55;20.90;;;15.27;;
75926;SDS011;64605;48.296;16.416;2022-12-07T05:52:21;17.52;;;13.23;;
75926;SDS011;64605;48.296;16.416;2022-12-07T05:54:47;17.65;;;13.48;;
75926;SDS011;64605;48.296;16.416;2022-12-07T05:57:13;23.27;;;15.80;;
75926;SDS011;64605;48.296;16.416;2022-12-07T05:59:38;21.02;;;15.27;;
75926;SDS011;64605;48.296;16.416;2022-12-07T06:02:11;21.52;;;15.45;;
75926;SDS011;64605;48.296;16.416;2022-12-07T06:04:40;19.45;;;14.40;;
75926;SDS011;64605;48.296;16.416;2022-12-07T06:07:07;19.40;;;14.18;;
75926;SDS011;64605;48.296;16.416;2022-12-07T06:09:34;21.40;;;16.13;;
75926;SDS011;64605;48.296;16.416;2022-12-07T06:12:00;19.70;;;14.73;;
75926;SDS011;64605;48.296;16.416;2022-12-07T06:14:45;21.92;;;15.10;;
75926;SDS011;64605;48.296;16.416;2022-12-07T06:17:11;19.48;;;14.18;;
75926;SDS011;64605;48.296;16.416;2022-12-07T06:19:37;21.83;;;14.13;;
75926;SDS011;64605;48.296;16.416;2022-12-07T06:22:03;26.23;;;16.02;;
75926;SDS011;64605;48.296;16.416;2022-12-07T06:24:30;22.65;;;15.20;;
75926;SDS011;64605;48.296;16.416;2022-12-07T06:26:56;20.63;;;14.45;;
75926;SDS011;64605;48.296;16.416;2022-12-07T06:29:22;22.48;;;13.98;;
75926;SDS011;64605;48.296;16.416;2022-12-07T06:31:48;21.23;;;14.70;;
75926;SDS011;64605;48.296;16.416;2022-12-07T06:34:15;21.88;;;15.07;;
75926;SDS011;64605;48.296;16.416;2022-12-07T06:36:42;19.33;;;13.95;;
75926;SDS011;64605;48.296;16.416;2022-12-07T06:39:09;18.13;;;13.30;;
75926;SDS011;64605;48.296;16.416;2022-12-07T06:41:35;21.90;;;14.38;;
75926;SDS011;64605;48.296;16.416;2022-12-07T06:44:02;18.15;;;13.30;;
75926;SDS011;64605;48.296;16.416;2022-12-07T06:46:28;19.25;;;13.20;;
75926;SDS011;64605;48.296;16.416;2022-12-07T06:48:54;21.67;;;14.63;;
75926;SDS011;64605;48.296;16.416;2022-12-07T06:51:20;18.02;;;13.73;;
75926;SDS011;64605;48.296;16.416;2022-12-07T06:53:45;19.73;;;13.57;;
75926;SDS011;64605;48.296;16.416;2022-12-07T06:56:11;19.77;;;13.23;;
75926;SDS011;64605;48.296;16.416;2022-12-07T06:58:37;18.67;;;12.60;;
75926;SDS011;64605;48.296;16.416;2022-12-07T07:01:08;19.02;;;12.68;;
75926;SDS011;64605;48.296;16.416;2022-12-07T07:03:37;20.33;;;11.82;;
75926;SDS011;64605;48.296;16.416;2022-12-07T07:06:03;18.17;;;12.93;;
75926;SDS011;64605;48.296;16.416;2022-12-07T07:08:30;17.77;;;12.75;;
75926;SDS011;64605;48.296;16.416;2022-12-07T07:10:55;17.98;;;12.20;;
75926;SDS011;64605;48.296;16.416;2022-12-07T07:13:21;15.85;;;11.98;;
75926;SDS011;64605;48.296;16.416;2022-12-07T07:15:47;19.08;;;12.85;;
75926;SDS011;64605;48.296;16.416;2022-12-07T07:18:12;17.15;;;11.82;;
75926;SDS011;64605;48.296;16.416;2022-12-07T07:20:39;18.08;;;12.85;;
75926;SDS011;64605;48.296;16.416;2022-12-07T07:23:06;15.98;;;11.90;;
75926;SDS011;64605;48.296;16.416;2022-12-07T07:25:32;15.88;;;11.48;;
75926;SDS011;64605;48.296;16.416;2022-12-07T07:27:58;17.42;;;11.85;;
75926;SDS011;64605;48.296;16.416;2022-12-07T07:30:24;15.90;;;11.48;;
75926;SDS011;64605;48.296;16.416;2022-12-07T07:32:50;16.55;;;13.00;;
75926;SDS011;64605;48.296;16.416;2022-12-07T07:35:16;15.77;;;12.20;;
75926;SDS011;64605;48.296;16.416;2022-12-07T07:37:42;17.27;;;12.38;;
75926;SDS011;64605;48.296;16.416;2022-12-07T07:40:08;17.13;;;11.65;;
75926;SDS011;64605;48.296;16.416;2022-12-07T07:42:34;15.13;;;11.10;;
75926;SDS011;64605;48.296;16.416;2022-12-07T07:45:00;15.30;;;11.38;;
75926;SDS011;64605;48.296;16.416;2022-12-07T07:47:26;14.43;;;11.40;;
75926;SDS011;64605;48.296;16.416;2022-12-07T07:49:51;14.80;;;10.55;;
75926;SDS011;64605;48.296;16.416;2022-12-07T07:52:17;15.70;;;11.02;;
75926;SDS011;64605;48.296;16.416;2022-12-07T07:54:42;15.85;;;10.48;;
75926;SDS011;64605;48.296;16.416;2022-12-07T07:57:08;13.10;;;9.80;;
75926;SDS011;64605;48.296;16.416;2022-12-07T07:59:34;12.95;;;9.88;;
75926;SDS011;64605;48.296;16.416;2022-12-07T08:01:59;13.27;;;9.55;;
75926;SDS011;64605;48.296;16.416;2022-12-07T08:04:25;14.60;;;10.55;;
75926;SDS011;64605;48.296;16.416;2022-12-07T08:06:51;15.32;;;10.38;;
75926;SDS011;64605;48.296;16.416;2022-12-07T08:09:16;11.77;;;8.95;;
75926;SDS011;64605;48.296;16.416;2022-12-07T08:11:42;14.75;;;10.27;;
75926;SDS011;64605;48.296;16.416;2022-12-07T08:14:08;12.15;;;9.68;;
75926;SDS011;64605;48.296;16.416;2022-12-07T08:16:35;11.82;;;9.10;;
75926;SDS011;64605;48.296;16.416;2022-12-07T08:19:01;13.95;;;8.90;;
75926;SDS011;64605;48.296;16.416;2022-12-07T08:21:26;11.18;;;8.70;;
75926;SDS011;64605;48.296;16.416;2022-12-07T08:23:52;11.40;;;8.88;;
75926;SDS011;64605;48.296;16.416;2022-12-07T08:26:18;12.15;;;8.38;;
75926;SDS011;64605;48.296;16.416;2022-12-07T08:28:43;9.35;;;7.88;;
75926;SDS011;64605;48.296;16.416;2022-12-07T08:31:14;9.63;;;7.78;;
75926;SDS011;64605;48.296;16.416;2022-12-07T08:33:42;10.40;;;8.15;;
75926;SDS011;64605;48.296;16.416;2022-12-07T08:36:10;10.80;;;8.05;;
75926;SDS011;64605;48.296;16.416;2022-12-07T08:38:37;9.57;;;7.90;;
75926;SDS011;64605;48.296;16.416;2022-12-07T08:41:04;10.27;;;7.40;;
75926;SDS011;64605;48.296;16.416;2022-12-07T08:43:31;9.25;;;7.80;;
75926;SDS011;64605;48.296;16.416;2022-12-07T08:46:44;8.98;;;7.63;;
75926;SDS011;64605;48.296;16.416;2022-12-07T08:48:44;9.18;;;7.47;;
75926;SDS011;64605;48.296;16.416;2022-12-07T08:51:17;9.55;;;7.43;;
75926;SDS011;64605;48.296;16.416;2022-12-07T08:53:43;8.82;;;7.07;;
75926;SDS011;64605;48.296;16.416;2022-12-07T08:56:10;8.85;;;7.45;;
75926;SDS011;64605;48.296;16.416;2022-12-07T08:58:36;10.52;;;8.45;;
75926;SDS011;64605;48.296;16.416;2022-12-07T09:01:03;10.48;;;7.40;;
75926;SDS011;64605;48.296;16.416;2022-12-07T09:03:30;13.02;;;10.82;;
75926;SDS011;64605;48.296;16.416;2022-12-07T09:05:57;13.73;;;9.75;;
75926;SDS011;64605;48.296;16.416;2022-12-07T09:08:23;9.95;;;7.85;;
75926;SDS011;64605;48.296;16.416;2022-12-07T09:10:54;14.18;;;9.35;;
75926;SDS011;64605;48.296;16.416;2022-12-07T09:13:20;9.38;;;7.13;;
75926;SDS011;64605;48.296;16.416;2022-12-07T09:15:46;8.32;;;7.15;;
75926;SDS011;64605;48.296;16.416;2022-12-07T09:18:11;11.38;;;8.13;;
75926;SDS011;64605;48.296;16.416;2022-12-07T09:20:37;8.82;;;7.25;;
75926;SDS011;64605;48.296;16.416;2022-12-07T09:23:04;7.68;;;6.70;;
75926;SDS011;64605;48.296;16.416;2022-12-07T09:25:31;7.50;;;6.57;;
75926;SDS011;64605;48.296;16.416;2022-12-07T09:27:57;7.43;;;6.63;;
75926;SDS011;64605;48.296;16.416;2022-12-07T09:30:24;7.38;;;6.15;;
75926;SDS011;64605;48.296;16.416;2022-12-07T09:32:52;6.65;;;6.05;;
75926;SDS011;64605;48.296;16.416;2022-12-07T09:35:19;6.20;;;5.60;;
75926;SDS011;64605;48.296;16.416;2022-12-07T09:37:45;5.45;;;4.88;;
75926;SDS011;64605;48.296;16.416;2022-12-07T09:40:12;5.47;;;4.95;;
75926;SDS011;64605;48.296;16.416;2022-12-07T09:42:39;5.90;;;5.40;;
75926;SDS011;64605;48.296;16.416;2022-12-07T09:45:19;7.13;;;5.28;;
75926;SDS011;64605;48.296;16.416;2022-12-07T09:47:46;4.90;;;4.50;;
75926;SDS011;64605;48.296;16.416;2022-12-07T09:50:13;6.22;;;4.55;;
75926;SDS011;64605;48.296;16.416;2022-12-07T09:52:44;6.67;;;4.47;;
75926;SDS011;64605;48.296;16.416;2022-12-07T09:55:13;6.75;;;4.38;;
75926;SDS011;64605;48.296;16.416;2022-12-07T09:57:41;5.45;;;4.95;;
75926;SDS011;64605;48.296;16.416;2022-12-07T10:00:15;5.20;;;4.75;;
75926;SDS011;64605;48.296;16.416;2022-12-07T10:02:43;5.05;;;4.65;;
75926;SDS011;64605;48.296;16.416;2022-12-07T10:05:15;5.20;;;4.80;;
75926;SDS011;64605;48.296;16.416;2022-12-07T10:07:44;5.47;;;4.70;;
75926;SDS011;64605;48.296;16.416;2022-12-07T10:10:53;4.68;;;4.28;;
75926;SDS011;64605;48.296;16.416;2022-12-07T10:13:06;4.10;;;3.75;;
75926;SDS011;64605;48.296;16.416;2022-12-07T10:15:46;4.85;;;4.05;;
75926;SDS011;64605;48.296;16.416;2022-12-07T10:23:34;4.10;;;3.70;;
75926;SDS011;64605;48.296;16.416;2022-12-07T10:26:18;3.92;;;3.30;;
75926;SDS011;64605;48.296;16.416;2022-12-07T10:29:15;5.20;;;3.40;;
75926;SDS011;64605;48.296;16.416;2022-12-07T10:31:43;5.70;;;5.10;;
75926;SDS011;64605;48.296;16.416;2022-12-07T10:34:15;6.85;;;4.85;;
75926;SDS011;64605;48.296;16.416;2022-12-07T10:39:44;5.25;;;4.38;;
75926;SDS011;64605;48.296;16.416;2022-12-07T10:44:47;5.72;;;4.68;;
75926;SDS011;64605;48.296;16.416;2022-12-07T11:06:54;4.43;;;4.03;;
75926;SDS011;64605;48.296;16.416;2022-12-07T11:12:57;5.60;;;4.50;;
75926;SDS011;64605;48.296;16.416;2022-12-07T11:18:11;4.53;;;4.13;;
75926;SDS011;64605;48.296;16.416;2022-12-07T11:20:49;4.88;;;4.30;;
75926;SDS011;64605;48.296;16.416;2022-12-07T11:34:19;5.05;;;4.50;;
75926;SDS011;64605;48.296;16.416;2022-12-07T11:36:54;6.30;;;5.00;;
75926;SDS011;64605;48.296;16.416;2022-12-07T11:42:06;7.30;;;5.22;;
75926;SDS011;64605;48.296;16.416;2022-12-07T11:52:56;5.65;;;5.13;;
75926;SDS011;64605;48.296;16.416;2022-12-07T11:55:32;8.15;;;5.78;;
75926;SDS011;64605;48.296;16.416;2022-12-07T12:01:03;8.25;;;6.25;;
75926;SDS011;64605;48.296;16.416;2022-12-07T12:03:30;6.75;;;5.50;;
75926;SDS011;64605;48.296;16.416;2022-12-07T12:06:01;6.25;;;5.50;;
75926;SDS011;64605;48.296;16.416;2022-12-07T12:08:28;14.52;;;9.20;;
75926;SDS011;64605;48.296;16.416;2022-12-07T12:11:08;20.00;;;14.93;;
75926;SDS011;64605;48.296;16.416;2022-12-07T12:14:02;8.60;;;6.43;;
75926;SDS011;64605;48.296;16.416;2022-12-07T12:19:33;5.97;;;5.38;;
75926;SDS011;64605;48.296;16.416;2022-12-07T12:22:24;8.23;;;6.55;;
75926;SDS011;64605;48.296;16.416;2022-12-07T12:24:58;7.38;;;5.50;;
75926;SDS011;64605;48.296;16.416;2022-12-07T12:27:27;7.13;;;6.43;;
75926;SDS011;64605;48.296;16.416;2022-12-07T12:29:57;7.35;;;6.22;;
75926;SDS011;64605;48.296;16.416;2022-12-07T12:32:39;7.40;;;6.00;;
75926;SDS011;64605;48.296;16.416;2022-12-07T12:37:51;8.43;;;5.90;;
75926;SDS011;64605;48.296;16.416;2022-12-07T12:43:21;6.28;;;5.20;;
75926;SDS011;64605;48.296;16.416;2022-12-07T12:54:22;8.23;;;5.72;;
75926;SDS011;64605;48.296;16.416;2022-12-07T12:59:26;8.68;;;5.60;;
75926;SDS011;64605;48.296;16.416;2022-12-07T13:12:58;10.00;;;6.13;;
75926;SDS011;64605;48.296;16.416;2022-12-07T13:20:57;9.45;;;6.32;;
75926;SDS011;64605;48.296;16.416;2022-12-07T13:26:19;7.53;;;6.63;;
75926;SDS011;64605;48.296;16.416;2022-12-07T13:33:42;8.80;;;6.85;;
75926;SDS011;64605;48.296;16.416;2022-12-07T13:36:12;7.53;;;6.38;;
75926;SDS011;64605;48.296;16.416;2022-12-07T13:38:52;9.35;;;6.60;;
75926;SDS011;64605;48.296;16.416;2022-12-07T13:41:20;7.05;;;5.47;;
75926;SDS011;64605;48.296;16.416;2022-12-07T13:43:49;7.63;;;6.38;;
75926;SDS011;64605;48.296;16.416;2022-12-07T13:46:15;7.53;;;6.25;;
75926;SDS011;64605;48.296;16.416;2022-12-07T13:48:46;8.57;;;6.53;;
75926;SDS011;64605;48.296;16.416;2022-12-07T13:51:17;7.90;;;5.88;;
75926;SDS011;64605;48.296;16.416;2022-12-07T13:53:49;7.93;;;6.40;;
75926;SDS011;64605;48.296;16.416;2022-12-07T13:56:20;7.68;;;5.57;;
75926;SDS011;64605;48.296;16.416;2022-12-07T13:58:47;8.73;;;6.45;;
75926;SDS011;64605;48.296;16.416;2022-12-07T14:01:13;7.63;;;6.07;;
75926;SDS011;64605;48.296;16.416;2022-12-07T14:03:39;11.05;;;6.45;;
75926;SDS011;64605;48.296;16.416;2022-12-07T14:08:43;9.57;;;7.05;;
75926;SDS011;64605;48.296;16.416;2022-12-07T14:11:13;8.23;;;6.82;;
75926;SDS011;64605;48.296;16.416;2022-12-07T14:13:50;9.57;;;7.13;;
75926;SDS011;64605;48.296;16.416;2022-12-07T14:16:32;9.75;;;6.75;;
75926;SDS011;64605;48.296;16.416;2022-12-07T14:19:03;8.07;;;6.70;;
75926;SDS011;64605;48.296;16.416;2022-12-07T14:21:31;10.15;;;6.97;;
75926;SDS011;64605;48.296;16.416;2022-12-07T14:24:10;12.65;;;7.82;;
75926;SDS011;64605;48.296;16.416;2022-12-07T14:26:40;12.77;;;7.55;;
75926;SDS011;64605;48.296;16.416;2022-12-07T14:29:19;11.15;;;7.55;;
75926;SDS011;64605;48.296;16.416;2022-12-07T14:31:51;15.55;;;7.20;;
75926;SDS011;64605;48.296;16.416;2022-12-07T14:34:19;10.23;;;6.78;;
75926;SDS011;64605;48.296;16.416;2022-12-07T14:36:48;9.55;;;6.93;;
75926;SDS011;64605;48.296;16.416;2022-12-07T14:39:14;10.25;;;7.03;;
75926;SDS011;64605;48.296;16.416;2022-12-07T14:41:40;8.23;;;6.45;;
75926;SDS011;64605;48.296;16.416;2022-12-07T14:44:21;8.38;;;6.53;;
75926;SDS011;64605;48.296;16.416;2022-12-07T14:46:48;9.18;;;6.18;;
75926;SDS011;64605;48.296;16.416;2022-12-07T14:49:15;7.95;;;6.65;;
75926;SDS011;64605;48.296;16.416;2022-12-07T14:51:41;9.40;;;6.55;;
75926;SDS011;64605;48.296;16.416;2022-12-07T14:54:12;8.75;;;6.70;;
75926;SDS011;64605;48.296;16.416;2022-12-07T14:56:41;9.93;;;6.22;;
75926;SDS011;64605;48.296;16.416;2022-12-07T14:59:07;10.15;;;6.78;;
75926;SDS011;64605;48.296;16.416;2022-12-07T15:01:32;18.02;;;7.18;;
75926;SDS011;64605;48.296;16.416;2022-12-07T15:03:59;8.50;;;6.47;;
75926;SDS011;64605;48.296;16.416;2022-12-07T15:06:24;11.00;;;7.18;;
75926;SDS011;64605;48.296;16.416;2022-12-07T15:08:50;9.35;;;7.28;;
75926;SDS011;64605;48.296;16.416;2022-12-07T15:11:16;9.82;;;6.60;;
75926;SDS011;64605;48.296;16.416;2022-12-07T15:13:43;11.18;;;6.75;;
75926;SDS011;64605;48.296;16.416;2022-12-07T15:16:28;11.63;;;7.25;;
75926;SDS011;64605;48.296;16.416;2022-12-07T15:18:53;11.65;;;6.80;;
75926;SDS011;64605;48.296;16.416;2022-12-07T15:21:19;7.63;;;6.32;;
75926;SDS011;64605;48.296;16.416;2022-12-07T15:23:45;10.82;;;7.43;;
75926;SDS011;64605;48.296;16.416;2022-12-07T15:26:12;10.77;;;6.65;;
75926;SDS011;64605;48.296;16.416;2022-12-07T15:28:39;10.35;;;7.30;;
75926;SDS011;64605;48.296;16.416;2022-12-07T15:31:11;9.77;;;7.78;;
75926;SDS011;64605;48.296;16.416;2022-12-07T15:36:04;11.43;;;7.10;;
75926;SDS011;64605;48.296;16.416;2022-12-07T15:38:30;9.13;;;7.07;;
75926;SDS011;64605;48.296;16.416;2022-12-07T15:40:56;9.85;;;7.43;;
75926;SDS011;64605;48.296;16.416;2022-12-07T15:43:22;9.43;;;7.63;;
75926;SDS011;64605;48.296;16.416;2022-12-07T15:46:06;11.80;;;8.15;;
75926;SDS011;64605;48.296;16.416;2022-12-07T15:48:32;12.07;;;8.73;;
75926;SDS011;64605;48.296;16.416;2022-12-07T15:51:02;9.32;;;7.97;;
75926;SDS011;64605;48.296;16.416;2022-12-07T15:53:36;8.80;;;7.63;;
75926;SDS011;64605;48.296;16.416;2022-12-07T15:56:05;12.82;;;8.20;;
75926;SDS011;64605;48.296;16.416;2022-12-07T15:58:32;10.68;;;7.97;;
75926;SDS011;64605;48.296;16.416;2022-12-07T16:00:57;10.48;;;8.02;;
75926;SDS011;64605;48.296;16.416;2022-12-07T16:03:23;12.65;;;9.13;;
75926;SDS011;64605;48.296;16.416;2022-12-07T16:05:49;11.27;;;8.25;;
75926;SDS011;64605;48.296;16.416;2022-12-07T16:08:19;10.23;;;8.32;;
75926;SDS011;64605;48.296;16.416;2022-12-07T16:10:44;10.90;;;8.63;;
75926;SDS011;64605;48.296;16.416;2022-12-07T16:13:11;11.63;;;9.35;;
75926;SDS011;64605;48.296;16.416;2022-12-07T16:15:38;12.25;;;9.98;;
75926;SDS011;64605;48.296;16.416;2022-12-07T16:18:04;11.38;;;8.88;;
75926;SDS011;64605;48.296;16.416;2022-12-07T16:20:30;12.20;;;9.70;;
75926;SDS011;64605;48.296;16.416;2022-12-07T16:22:56;11.75;;;8.63;;
75926;SDS011;64605;48.296;16.416;2022-12-07T16:25:22;11.50;;;8.70;;
75926;SDS011;64605;48.296;16.416;2022-12-07T16:27:47;12.90;;;8.55;;
75926;SDS011;64605;48.296;16.416;2022-12-07T16:30:14;14.00;;;10.00;;
75926;SDS011;64605;48.296;16.416;2022-12-07T16:32:41;12.10;;;8.68;;
75926;SDS011;64605;48.296;16.416;2022-12-07T16:35:07;13.20;;;8.75;;
75926;SDS011;64605;48.296;16.416;2022-12-07T16:37:34;11.32;;;8.85;;
75926;SDS011;64605;48.296;16.416;2022-12-07T16:39:59;14.35;;;10.32;;
75926;SDS011;64605;48.296;16.416;2022-12-07T16:42:25;13.48;;;9.45;;
75926;SDS011;64605;48.296;16.416;2022-12-07T16:44:51;14.25;;;9.85;;
75926;SDS011;64605;48.296;16.416;2022-12-07T16:47:17;14.60;;;10.98;;
75926;SDS011;64605;48.296;16.416;2022-12-07T16:49:43;15.02;;;10.88;;
75926;SDS011;64605;48.296;16.416;2022-12-07T16:52:09;14.70;;;10.77;;